Time;durP1;ratioP1;P1;durP2;ratioP2;P2;SDS_P1;SDS_P2;PMS_P1;PMS_P2;Temp;Humidity;BMP_temperature;BMP_pressure;BME280_temperature;BME280_humidity;BME280_pressure;Samples;Min_cycle;Max_cycle;Signal;HPM_P1;HPM_P2
2023/08/04 00:04:04;;;;;;;7.10;3.10;;;;;;;16.63;71.10;99468.21;125972;1308;635629;-75
2023/08/04 00:07:56;;;;;;;;;;;;;;;;;;;;;
2023/08/04 00:12:00;;;;;;;8.30;2.90;;;;;;;16.52;71.38;99463.36;127768;1285;115363;-68
2023/08/04 00:15:40;;;;;;;4.00;2.30;;;;;;;16.48;71.87;99467.34;124362;1279;5441088;-71
2023/08/04 00:19:46;;;;;;;;;;;;;;;;;;;;;
2023/08/04 00:23:48;;;;;;;4.50;2.20;;;;;;;16.41;71.98;99461.63;127017;1284;114967;-69
2023/08/04 00:27:49;;;;;;;3.40;2.10;;;;;;;16.37;72.22;99451.36;127031;1286;114964;-64
2023/08/04 00:31:51;;;;;;;4.90;2.20;;;;;;;16.33;72.51;99454.95;126326;1295;129771;-73
2023/08/04 00:40:20;;;;;;;6.00;2.40;;;;;;;16.28;72.73;99464.77;125908;1300;637386;-74
2023/08/04 00:44:22;;;;;;;3.90;2.30;;;;;;;16.21;72.77;99461.18;127449;1305;128932;-75
2023/08/04 00:48:29;;;;;;;;;;;;;;;;;;;;;
2023/08/04 00:52:30;;;;;;;5.80;2.30;;;;;;;16.10;73.14;99466.50;122036;1312;5474152;-73
2023/08/04 00:56:32;;;;;;;7.60;2.50;;;;;;;16.04;73.30;99470.41;126087;1301;114873;-74
2023/08/04 01:00:33;;;;;;;5.70;1.90;;;;;;;16.00;73.45;99475.33;125590;1304;114933;-67
2023/08/04 01:09:10;;;;;;;4.70;2.40;;;;;;;15.91;73.72;99472.67;126091;1298;637497;-71
2023/08/04 01:13:19;;;;;;;5.20;2.70;;;;;;;15.83;73.82;99487.47;128487;1275;128631;-74
2023/08/04 01:17:18;;;;;;;4.30;2.20;;;;;;;15.78;73.94;99492.00;128347;1289;115216;-76
2023/08/04 01:21:21;;;;;;;7.70;1.80;;;;;;;15.73;74.24;99490.80;123632;1286;5450402;-73
2023/08/04 01:41:52;;;;;;;4.30;2.00;;;;;;;15.54;75.13;99506.08;125987;1297;636013;-74
2023/08/04 01:45:55;;;;;;;3.50;1.90;;;;;;;15.48;75.22;99513.22;128630;1276;128379;-66
2023/08/04 01:54:00;;;;;;;3.10;2.30;;;;;;;15.42;75.45;99506.91;123288;1289;5448707;-72
2023/08/04 01:58:01;;;;;;;4.50;2.00;;;;;;;15.39;75.88;99505.69;126321;1293;115165;-74
2023/08/04 02:10:06;;;;;;;7.00;2.30;;;;;;;15.29;75.94;99506.02;124570;1313;128057;-73
2023/08/04 02:18:38;;;;;;;5.20;2.30;;;;;;;15.25;76.05;99503.07;126087;1298;638501;-72
2023/08/04 02:22:40;;;;;;;3.50;1.90;;;;;;;15.22;76.01;99510.92;127539;1287;128030;-72
2023/08/04 02:30:50;;;;;;;5.60;1.90;;;;;;;15.16;76.18;99527.20;121643;1307;5465303;-70
2023/08/04 02:39:17;;;;;;;4.70;1.70;;;;;;;15.14;76.36;99548.77;125661;1304;636878;-75
2023/08/04 02:43:20;;;;;;;2.10;1.40;;;;;;;15.13;76.53;99553.48;127439;1286;127892;-74
2023/08/04 02:47:23;;;;;;;5.70;2.00;;;;;;;15.17;76.69;99552.08;128173;1274;115230;-68
2023/08/04 02:51:25;;;;;;;6.90;2.40;;;;;;;15.23;77.13;99554.90;124290;1281;5216097;-72
2023/08/04 03:07:30;;;;;;;;;;;;;;;;;;;;;
2023/08/04 03:15:55;;;;;;;4.30;2.30;;;;;;;15.47;77.67;99574.11;126501;1295;636379;-71
2023/08/04 03:19:57;;;;;;;7.90;2.60;;;;;;;15.53;77.52;99580.55;127500;1305;129661;-76
2023/08/04 03:24:00;;;;;;;3.20;2.00;;;;;;;15.59;77.81;99584.37;127607;1285;115259;-63
2023/08/04 03:32:05;;;;;;;3.40;1.90;;;;;;;15.72;77.50;99578.98;125651;1311;115350;-69
2023/08/04 03:36:07;;;;;;;2.70;1.80;;;;;;;15.77;77.63;99586.06;125001;1326;115159;-75
2023/08/04 03:44:28;;;;;;;;;;;;;;;;;;;;;
2023/08/04 03:48:33;;;;;;;4.30;1.90;;;;;;;15.97;77.69;99590.48;129257;1279;128851;-69
2023/08/04 03:52:35;;;;;;;4.20;1.90;;;;;;;16.02;77.83;99592.38;128543;1274;115236;-64
2023/08/04 03:56:38;;;;;;;3.50;2.00;;;;;;;16.06;77.96;99588.36;123574;1290;5432830;-64
2023/08/04 04:04:40;;;;;;;6.20;2.60;;;;;;;16.17;78.01;99594.73;125418;1307;116704;-72
2023/08/04 04:08:42;;;;;;;7.60;1.70;;;;;;;16.22;78.04;99594.98;125069;1328;114979;-75
2023/08/04 04:17:06;;;;;;;7.20;2.60;;;;;;;16.39;77.96;99589.27;126439;1293;636695;-78
2023/08/04 04:21:08;;;;;;;5.00;1.80;;;;;;;16.42;77.97;99600.70;128824;1275;126803;-67
2023/08/04 04:25:11;;;;;;;6.40;2.20;;;;;;;16.48;77.99;99603.49;127755;1300;115251;-64
2023/08/04 04:29:08;;;;;;;;;;;;;;;;;;;;;
2023/08/04 04:33:10;;;;;;;6.00;1.70;;;;;;;16.58;77.85;99621.51;124490;1331;114918;-71
2023/08/04 04:41:40;;;;;;;7.30;1.80;;;;;;;16.73;77.69;99614.89;126352;1293;635938;-70
2023/08/04 04:45:33;;;;;;;4.90;1.70;;;;;;;16.78;77.46;99610.58;128744;1278;127741;-67
2023/08/04 04:49:35;;;;;;;2.10;1.60;;;;;;;16.89;77.80;99605.56;127986;1283;115256;-72
2023/08/04 04:57:23;;;;;;;4.50;1.80;;;;;;;17.09;77.34;99612.29;125662;1302;114865;-65
2023/08/04 05:05:16;;;;;;;6.70;2.00;;;;;;;17.28;77.05;99614.21;124254;1313;128138;-64
2023/08/04 05:08:49;;;;;;;;;;;;;;;;;;;;;
2023/08/04 05:13:16;;;;;;;3.00;1.60;;;;;;;17.43;76.56;99628.29;125780;1302;635970;-63
2023/08/04 05:17:19;;;;;;;5.30;1.90;;;;;;;17.47;76.36;99641.63;127654;1293;128738;-67
2023/08/04 05:25:23;;;;;;;7.30;1.70;;;;;;;17.59;76.16;99638.58;123028;1288;5416796;-74
2023/08/04 05:29:25;;;;;;;5.50;1.90;;;;;;;17.67;75.95;99638.82;125981;1295;114829;-69
2023/08/04 05:33:27;;;;;;;4.10;1.80;;;;;;;17.75;76.07;99647.66;125503;1302;114996;-75
2023/08/04 05:37:28;;;;;;;5.80;1.60;;;;;;;17.85;75.90;99654.34;124989;1310;114864;-73
2023/08/04 05:49:50;;;;;;;3.30;1.60;;;;;;;18.26;75.24;99658.75;129371;1268;128213;-68
2023/08/04 05:53:53;;;;;;;6.60;1.90;;;;;;;18.45;75.37;99659.58;129123;1271;116495;-72
2023/08/04 05:57:55;;;;;;;6.60;1.80;;;;;;;18.68;74.98;99662.16;124805;1274;5471845;-74
2023/08/04 06:02:01;;;;;;;;;;;;;;;;;;;;;
2023/08/04 06:06:11;;;;;;;;;;;;;;;;;;;;;
2023/08/04 06:18:39;;;;;;;5.70;1.70;;;;;;;20.25;73.16;99659.86;126117;1299;636363;-70
2023/08/04 06:22:42;;;;;;;5.40;1.70;;;;;;;20.48;72.40;99667.89;126972;1286;128996;-66
2023/08/04 06:26:38;;;;;;;6.00;1.40;;;;;;;20.70;71.54;99671.54;126511;1294;115205;-66
2023/08/04 06:30:45;;;;;;;2.60;1.20;;;;;;;21.15;71.21;99670.23;122382;1297;5471862;-66
2023/08/04 06:34:49;;;;;;;4.50;1.60;;;;;;;21.73;70.52;99677.38;125889;1301;114948;-69
2023/08/04 06:38:23;;;;;;;6.70;1.40;;;;;;;22.25;69.02;99680.42;125115;1326;114964;-76
2023/08/04 06:42:18;;;;;;;;;;;;;;;;;;;;;
2023/08/04 06:46:20;;;;;;;2.00;0.90;;;;;;;22.60;66.66;99677.88;124721;1331;129603;-66
2023/08/04 06:50:22;;;;;;;2.30;1.10;;;;;;;22.62;65.88;99685.84;124088;1316;115358;-76
2023/08/04 06:54:23;;;;;;;3.60;1.80;;;;;;;22.73;65.45;99687.42;123535;1322;115090;-66
2023/08/04 06:58:13;;;;;;;;;;;;;;;;;;;;;
2023/08/04 07:02:26;;;;;;;6.50;1.20;;;;;;;23.12;63.87;99704.12;126615;1295;635938;-67
2023/08/04 07:06:29;;;;;;;2.90;1.40;;;;;;;23.14;62.87;99713.27;128907;1283;127839;-68
2023/08/04 07:10:32;;;;;;;2.90;1.60;;;;;;;23.01;62.46;99722.48;127907;1281;115412;-73
2023/08/04 07:18:20;;;;;;;4.00;1.00;;;;;;;23.38;61.96;99730.45;125754;1302;114893;-71
2023/08/04 07:22:22;;;;;;;2.40;1.70;;;;;;;23.96;62.03;99733.05;125665;1304;114756;-72
2023/08/04 07:26:21;;;;;;;;;;;;;;;;;;;;;
2023/08/04 07:30:04;;;;;;;2.60;0.90;;;;;;;25.63;59.99;99732.27;125493;1306;121189;-78
2023/08/04 07:33:55;;;;;;;1.60;1.10;;;;;;;26.50;58.75;99729.17;125503;1308;114975;-80
2023/08/04 07:37:49;;;;;;;1.20;0.80;;;;;;;27.26;57.19;99728.43;124534;1327;114943;-73
2023/08/04 07:45:45;;;;;;;2.20;0.80;;;;;;;28.86;54.14;99736.27;123895;1337;114826;-64
2023/08/04 07:49:37;;;;;;;1.40;0.90;;;;;;;29.56;53.05;99739.61;124253;1316;121957;-70
2023/08/04 07:53:38;;;;;;;1.50;1.00;;;;;;;30.14;51.52;99740.92;125590;1306;114977;-67
2023/08/04 07:57:39;;;;;;;2.80;0.80;;;;;;;30.72;50.29;99745.48;126156;1296;114986;-77
2023/08/04 08:01:41;;;;;;;3.80;0.70;;;;;;;30.91;48.77;99743.33;125671;1304;114888;-66
2023/08/04 08:05:35;;;;;;;2.50;0.90;;;;;;;31.23;48.06;99738.81;125198;1319;114842;-74
2023/08/04 08:13:29;;;;;;;5.30;0.80;;;;;;;32.18;45.68;99731.71;126354;1302;635806;-73
2023/08/04 08:17:15;;;;;;;;;;;;;;;;;;;;;
2023/08/04 08:20:17;;;;;;;2.00;0.80;;;;;;;32.44;43.95;99733.65;128664;1280;114893;-66
2023/08/04 08:24:21;;;;;;;1.20;0.70;;;;;;;32.09;43.32;99735.61;128632;1278;114777;-66
2023/08/04 08:27:37;;;;;;;2.30;0.80;;;;;;;31.80;43.03;99738.08;125990;1294;2944110;-77
2023/08/04 08:31:21;;;;;;;1.80;0.80;;;;;;;31.94;42.77;99737.08;127936;1283;114928;-65
2023/08/04 08:35:04;;;;;;;3.20;0.80;;;;;;;32.36;42.76;99738.45;127424;1300;119909;-75
2023/08/04 08:38:59;;;;;;;2.20;0.90;;;;;;;32.33;42.14;99740.61;128081;1284;114847;-73
2023/08/04 08:43:03;;;;;;;0.70;0.60;;;;;;;31.85;41.19;99741.33;127683;1289;114934;-70
2023/08/04 08:46:49;;;;;;;0.60;0.60;;;;;;;31.17;40.96;99745.68;127730;1280;114896;-65
2023/08/04 08:51:16;;;;;;;1.50;0.70;;;;;;;30.51;40.82;99750.98;127844;1286;114786;-68
2023/08/04 08:54:55;;;;;;;1.00;0.70;;;;;;;30.35;41.34;99749.46;127487;1289;119465;-71
2023/08/04 08:58:47;;;;;;;2.00;0.80;;;;;;;30.31;41.11;99753.19;127024;1299;114964;-78
2023/08/04 09:02:54;;;;;;;0.70;0.70;;;;;;;30.48;41.16;99761.23;126302;1314;114970;-67
2023/08/04 09:06:57;;;;;;;1.80;0.80;;;;;;;30.79;41.38;99761.40;125594;1306;114908;-71
2023/08/04 09:10:26;;;;;;;1.30;0.90;;;;;;;30.75;40.70;99764.54;124901;1329;115079;-71
2023/08/04 09:13:28;;;;;;;2.40;1.00;;;;;;;30.57;40.85;99763.61;124219;1315;130534;-64
2023/08/04 09:17:33;;;;;;;2.30;0.70;;;;;;;30.41;41.04;99763.67;124222;1333;115024;-77
2023/08/04 09:29:07;;;;;;;2.10;0.90;;;;;;;29.97;41.18;99766.62;128502;1298;119258;-70
2023/08/04 09:32:36;;;;;;;1.80;0.60;;;;;;;29.86;41.15;99773.86;128669;1276;114808;-67
2023/08/04 09:36:21;;;;;;;;;;;;;;;;;;;;;
2023/08/04 09:40:13;;;;;;;;;;;;;;;;;;;;;
2023/08/04 09:44:23;;;;;;;2.10;1.00;;;;;;;29.77;41.79;99774.77;127170;1308;114828;-73
2023/08/04 09:52:03;;;;;;;2.10;0.70;;;;;;;29.99;41.76;99758.13;125922;1302;121211;-78
2023/08/04 09:55:47;;;;;;;0.70;0.70;;;;;;;29.99;41.72;99751.70;125696;1314;114847;-65
2023/08/04 09:59:28;;;;;;;0.60;0.50;;;;;;;29.95;41.19;99755.18;125838;1301;114913;-65
2023/08/04 10:07:10;;;;;;;;;;;;;;;;;;;;;
2023/08/04 10:11:03;;;;;;;;;;;;;;;;;;;;;
2023/08/04 10:14:36;;;;;;;3.10;0.50;;;;;;;29.82;40.78;99750.20;125615;1304;114806;-65
2023/08/04 10:22:46;;;;;;;0.50;0.50;;;;;;;29.72;40.15;99750.30;126009;1308;114961;-65
2023/08/04 10:26:53;;;;;;;1.80;0.60;;;;;;;29.65;39.72;99748.75;125662;1314;114906;-68
2023/08/04 10:31:10;;;;;;;0.50;0.50;;;;;;;29.49;39.55;99747.17;126129;1298;121367;-78
2023/08/04 10:35:06;;;;;;;0.50;0.50;;;;;;;29.38;39.63;99742.39;125658;1303;114963;-65
2023/08/04 10:39:08;;;;;;;2.50;0.50;;;;;;;29.25;39.61;99734.60;125726;1316;114910;-65
2023/08/04 10:43:19;;;;;;;1.00;0.90;;;;;;;29.04;39.24;99734.63;124624;1323;114982;-75
2023/08/04 10:46:48;;;;;;;0.70;0.70;;;;;;;28.91;39.30;99725.73;125010;1309;114918;-65
2023/08/04 10:49:55;;;;;;;1.00;0.70;;;;;;;28.88;39.42;99730.27;124902;1307;118987;-68
2023/08/04 10:53:36;;;;;;;1.40;0.70;;;;;;;28.84;39.36;99732.55;125074;1328;114843;-78
2023/08/04 10:57:38;;;;;;;0.50;0.50;;;;;;;28.75;39.46;99737.33;124871;1328;115016;-75
2023/08/04 11:01:36;;;;;;;0.80;0.50;;;;;;;28.81;39.82;99741.62;125417;1304;114987;-67
2023/08/04 11:05:37;;;;;;;0.90;0.60;;;;;;;29.03;40.02;99745.97;125725;1309;114888;-78
2023/08/04 11:09:39;;;;;;;3.00;0.60;;;;;;;29.17;39.64;99751.91;125157;1325;121118;-69
2023/08/04 11:13:30;;;;;;;0.90;0.50;;;;;;;29.15;39.55;99741.64;125543;1309;114895;-70
2023/08/04 11:16:35;;;;;;;0.80;0.60;;;;;;;29.11;39.40;99739.94;125202;1312;114925;-71
2023/08/04 11:20:38;;;;;;;0.50;0.50;;;;;;;29.17;39.55;99740.83;126049;1294;115022;-77
2023/08/04 11:24:42;;;;;;;0.80;0.60;;;;;;;29.28;39.16;99751.70;126612;1292;114889;-75
2023/08/04 11:28:28;;;;;;;;;;;;;;;;;;;;;
2023/08/04 11:32:21;;;;;;;3.40;0.50;;;;;;;29.14;39.27;99755.56;125021;1326;114933;-73
2023/08/04 11:36:08;;;;;;;0.50;0.50;;;;;;;29.09;39.03;99759.04;125165;1308;114883;-65
2023/08/04 11:43:59;;;;;;;2.20;0.50;;;;;;;29.06;39.22;99771.20;124036;1319;114892;-70
2023/08/04 11:51:36;;;;;;;2.50;0.80;;;;;;;29.26;39.18;99774.10;126342;1304;635896;-63
2023/08/04 11:55:35;;;;;;;3.80;0.80;;;;;;;29.34;39.26;99774.24;128936;1274;120661;-73
2023/08/04 11:59:38;;;;;;;0.70;0.70;;;;;;;29.45;39.09;99779.02;128046;1298;114846;-77
2023/08/04 12:03:26;;;;;;;2.30;0.70;;;;;;;29.42;38.80;99785.09;128028;1283;114839;-65
2023/08/04 12:06:41;;;;;;;2.10;0.50;;;;;;;29.35;38.50;99780.14;124888;1277;114959;-69
2023/08/04 12:09:48;;;;;;;3.80;0.70;;;;;;;29.34;38.50;99768.52;128580;1273;114917;-77
2023/08/04 12:12:51;;;;;;;1.20;0.80;;;;;;;29.38;38.84;99761.35;128776;1279;114875;-70
2023/08/04 12:16:50;;;;;;;0.50;0.50;;;;;;;29.43;38.88;99767.21;128866;1275;114923;-65
2023/08/04 12:20:56;;;;;;;0.80;0.60;;;;;;;29.50;39.02;99762.75;127466;1294;114956;-64
2023/08/04 12:24:39;;;;;;;5.40;0.60;;;;;;;29.57;38.60;99765.45;127028;1300;114849;-65
2023/08/04 12:28:12;;;;;;;1.80;0.80;;;;;;;29.51;38.36;99769.08;127000;1289;114836;-76
2023/08/04 12:31:34;;;;;;;2.20;0.60;;;;;;;29.52;38.51;99772.67;127003;1308;114881;-76
2023/08/04 12:35:38;;;;;;;0.80;0.80;;;;;;;29.59;38.52;99776.15;127599;1286;128067;-77
2023/08/04 12:39:40;;;;;;;2.10;0.90;;;;;;;29.66;38.80;99764.34;127035;1290;114790;-65
2023/08/04 12:43:17;;;;;;;;;;;;;;;;;;;;;
2023/08/04 12:47:10;;;;;;;;;;;;;;;;;;;;;
2023/08/04 12:50:39;;;;;;;;;;;;;;;;;;;;;
2023/08/04 12:54:44;;;;;;;1.50;0.70;;;;;;;29.78;38.49;99786.52;127065;1301;119115;-64
2023/08/04 12:58:34;;;;;;;0.70;0.60;;;;;;;29.78;38.26;99787.80;127591;1283;115072;-64
2023/08/04 13:02:29;;;;;;;3.00;0.90;;;;;;;29.70;38.40;99790.54;126983;1306;114872;-75
2023/08/04 13:06:36;;;;;;;0.50;0.40;;;;;;;29.64;38.08;99786.51;127467;1289;114951;-70
2023/08/04 13:10:38;;;;;;;5.30;0.70;;;;;;;29.55;37.98;99784.02;125784;1305;114917;-71
2023/08/04 13:14:24;;;;;;;;;;;;;;;;;;;;;
2023/08/04 13:18:26;;;;;;;1.00;0.60;;;;;;;29.48;38.08;99806.48;125225;1317;115926;-69
2023/08/04 13:22:25;;;;;;;;;;;;;;;;;;;;;
2023/08/04 13:26:49;;;;;;;0.80;0.70;;;;;;;29.35;38.29;99820.09;126324;1294;636069;-75
2023/08/04 13:30:52;;;;;;;2.10;0.90;;;;;;;29.32;38.21;99819.53;128431;1280;119164;-71
2023/08/04 13:34:54;;;;;;;2.40;0.90;;;;;;;29.40;38.14;99824.48;127452;1290;114920;-69
2023/08/04 13:38:55;;;;;;;3.70;1.60;;;;;;;29.51;37.80;99826.69;124829;1299;2254082;-76
2023/08/04 13:42:50;;;;;;;;;;;;;;;;;;;;;
2023/08/04 13:46:14;;;;;;;2.00;0.90;;;;;;;29.81;37.75;99831.13;124942;1309;114856;-76
2023/08/04 13:54:39;;;;;;;1.30;1.20;;;;;;;30.07;38.07;99824.47;125983;1296;635718;-66
2023/08/04 13:58:41;;;;;;;2.60;0.80;;;;;;;30.08;37.56;99827.49;129075;1291;119399;-63
2023/08/04 14:02:25;;;;;;;0.80;0.80;;;;;;;30.09;37.59;99833.58;128387;1277;114967;-75
2023/08/04 14:06:37;;;;;;;4.10;1.00;;;;;;;30.02;37.11;99831.97;127898;1277;5511069;-67
2023/08/04 14:09:52;;;;;;;0.70;0.70;;;;;;;29.82;37.17;99829.09;126629;1291;114945;-66
2023/08/04 14:18:11;;;;;;;1.30;1.00;;;;;;;29.61;37.12;99822.06;125690;1302;115696;-65
2023/08/04 14:22:01;;;;;;;;;;;;;;;;;;;;;
2023/08/04 14:26:27;;;;;;;0.80;0.80;;;;;;;29.52;37.20;99824.61;126580;1296;635563;-70
2023/08/04 14:34:35;;;;;;;0.60;0.60;;;;;;;29.37;37.14;99838.79;128590;1278;115291;-65
2023/08/04 14:38:35;;;;;;;0.90;0.80;;;;;;;29.21;37.37;99837.56;123595;1286;5440206;-65
2023/08/04 14:42:37;;;;;;;5.30;0.90;;;;;;;29.09;37.46;99843.73;126892;1293;114997;-65
2023/08/04 14:46:27;;;;;;;;;;;;;;;;;;;;;
2023/08/04 14:54:52;;;;;;;0.80;0.60;;;;;;;28.75;37.62;99840.63;126470;1293;635908;-77
2023/08/04 14:58:55;;;;;;;0.60;0.60;;;;;;;28.66;37.72;99839.98;129328;1273;119970;-69
2023/08/04 15:02:48;;;;;;;0.60;0.60;;;;;;;28.54;37.78;99837.53;128673;1276;114757;-68
2023/08/04 15:06:53;;;;;;;2.50;0.90;;;;;;;28.42;37.89;99837.99;125026;1286;5446752;-75
2023/08/04 15:19:05;;;;;;;1.60;0.90;;;;;;;28.25;38.58;99829.55;126804;1291;119317;-65
2023/08/04 15:22:58;;;;;;;;;;;;;;;;;;;;;
2023/08/04 15:26:51;;;;;;;;;;;;;;;;;;;;;
2023/08/04 15:30:37;;;;;;;1.40;0.80;;;;;;;28.07;38.43;99826.04;125772;1297;114910;-74
2023/08/04 15:34:30;;;;;;;2.00;0.90;;;;;;;27.95;38.25;99823.98;126060;1293;115004;-77
2023/08/04 15:38:32;;;;;;;1.00;0.90;;;;;;;27.84;38.64;99821.54;126230;1300;121092;-78
2023/08/04 15:42:33;;;;;;;2.80;0.70;;;;;;;27.80;38.68;99822.48;126022;1297;114960;-63
2023/08/04 15:46:35;;;;;;;4.40;0.70;;;;;;;27.74;38.80;99822.95;125746;1311;114879;-65
2023/08/04 15:50:29;;;;;;;1.90;1.00;;;;;;;27.69;38.98;99817.91;126585;1289;115019;-66
2023/08/04 15:54:30;;;;;;;2.60;0.60;;;;;;;27.63;39.01;99817.63;126636;1293;114953;-71
2023/08/04 15:58:21;;;;;;;;;;;;;;;;;;;;;
2023/08/04 16:02:23;;;;;;;2.20;0.60;;;;;;;27.50;39.14;99806.98;127027;1289;114978;-65
2023/08/04 16:06:03;;;;;;;1.90;0.70;;;;;;;27.40;39.18;99804.77;126284;1297;114789;-70
2023/08/04 16:09:56;;;;;;;1.10;0.80;;;;;;;27.29;39.53;99811.82;126283;1306;114951;-64
2023/08/04 16:13:50;;;;;;;3.00;1.00;;;;;;;27.23;39.79;99813.23;126119;1307;115205;-65
2023/08/04 16:17:51;;;;;;;3.10;1.00;;;;;;;27.10;39.63;99813.24;126021;1301;121192;-68
2023/08/04 16:21:42;;;;;;;;;;;;;;;;;;;;;
2023/08/04 16:25:27;;;;;;;3.10;1.10;;;;;;;26.84;39.73;99811.74;126163;1301;114965;-63
2023/08/04 16:29:29;;;;;;;2.20;1.10;;;;;;;26.72;39.97;99814.17;125668;1301;115019;-68
2023/08/04 16:41:57;;;;;;;3.00;1.00;;;;;;;26.32;40.75;99838.98;126356;1305;636199;-65
2023/08/04 16:46:00;;;;;;;8.70;1.30;;;;;;;26.19;40.94;99840.30;128763;1286;121030;-65
2023/08/04 16:50:03;;;;;;;3.70;1.40;;;;;;;26.08;41.28;99845.90;128551;1278;114866;-66
2023/08/04 16:54:04;;;;;;;2.70;0.90;;;;;;;25.98;41.16;99848.10;124043;1281;5408142;-64
2023/08/04 16:58:08;;;;;;;1.80;1.30;;;;;;;25.87;41.26;99843.80;126788;1293;114817;-69
2023/08/04 17:02:09;;;;;;;1.20;1.10;;;;;;;25.77;41.65;99845.50;126735;1296;114933;-66
2023/08/04 17:06:11;;;;;;;2.80;1.30;;;;;;;25.65;41.88;99843.80;126110;1298;115145;-65
2023/08/04 17:10:12;;;;;;;2.10;1.30;;;;;;;25.53;42.17;99839.04;126010;1295;120992;-65
2023/08/04 17:14:15;;;;;;;4.50;1.50;;;;;;;25.39;42.34;99835.23;125127;1304;114932;-66
2023/08/04 17:26:29;;;;;;;3.90;1.00;;;;;;;25.04;43.25;99823.96;125749;1299;640154;-64
2023/08/04 17:30:22;;;;;;;6.10;1.50;;;;;;;24.94;43.88;99821.44;128515;1278;128993;-64
2023/08/04 17:42:25;;;;;;;5.60;1.20;;;;;;;24.55;44.65;99827.49;126511;1307;114902;-70
2023/08/04 17:46:29;;;;;;;7.90;1.80;;;;;;;24.41;44.91;99833.14;125853;1301;130551;-65
2023/08/04 17:50:10;;;;;;;6.40;1.60;;;;;;;24.24;45.14;99836.77;125924;1302;114936;-67
2023/08/04 17:54:12;;;;;;;3.80;1.50;;;;;;;24.11;45.61;99850.02;125805;1300;115127;-66
2023/08/04 18:14:50;;;;;;;2.20;1.80;;;;;;;23.53;47.04;99873.17;123531;1288;5436045;-70
2023/08/04 18:22:45;;;;;;;;;;;;;;;;;;;;;
2023/08/04 18:34:45;;;;;;;3.70;2.80;;;;;;;23.00;48.63;99880.14;128975;1286;128788;-69
2023/08/04 18:38:48;;;;;;;6.60;3.50;;;;;;;22.91;48.95;99882.48;128295;1280;114771;-66
2023/08/04 18:43:04;;;;;;;6.10;3.00;;;;;;;22.82;49.27;99883.52;124422;1287;5513205;-72
2023/08/04 18:47:09;;;;;;;6.90;3.70;;;;;;;22.74;49.50;99894.92;126925;1301;116729;-69
2023/08/04 18:51:10;;;;;;;5.60;3.10;;;;;;;22.66;49.86;99905.51;126379;1293;114800;-67
2023/08/04 19:19:45;;;;;;;3.60;3.00;;;;;;;22.03;51.80;99925.75;125790;1304;116538;-70
2023/08/04 19:28:09;;;;;;;6.60;3.10;;;;;;;21.90;52.30;99930.71;124364;1317;114938;-72
2023/08/04 19:31:52;;;;;;;4.50;2.90;;;;;;;21.83;52.68;99926.24;124393;1316;129516;-71
2023/08/04 19:40:18;;;;;;;10.00;3.00;;;;;;;21.75;52.95;99937.08;125900;1303;637292;-71
2023/08/04 19:48:27;;;;;;;4.10;2.70;;;;;;;21.64;53.52;99955.14;126434;1292;116469;-70
2023/08/04 19:52:07;;;;;;;;;;;;;;;;;;;;;
2023/08/04 20:00:35;;;;;;;5.60;3.60;;;;;;;21.48;54.36;99968.13;126407;1297;637843;-72
2023/08/04 20:05:02;;;;;;;6.00;2.90;;;;;;;21.39;54.56;99965.02;128790;1275;129133;-71
2023/08/04 20:08:41;;;;;;;6.80;3.20;;;;;;;21.34;54.69;99959.45;127743;1302;116340;-71
2023/08/04 20:12:42;;;;;;;8.50;3.20;;;;;;;21.30;55.03;99965.94;123388;1287;5427260;-72
2023/08/04 20:16:44;;;;;;;6.10;3.40;;;;;;;21.23;55.42;99962.43;126136;1302;114913;-72
2023/08/04 20:20:46;;;;;;;5.30;3.50;;;;;;;21.18;55.45;99961.73;125863;1305;114963;-71
2023/08/04 20:24:47;;;;;;;6.20;2.90;;;;;;;21.13;55.83;99969.84;125321;1305;114981;-71
2023/08/04 20:28:46;;;;;;;;;;;;;;;;;;;;;
2023/08/04 20:41:26;;;;;;;14.10;3.00;;;;;;;20.92;56.41;99981.29;127817;1281;126622;-77
2023/08/04 20:45:35;;;;;;;9.80;3.40;;;;;;;20.88;56.74;99984.80;127335;1289;115223;-69
2023/08/04 20:53:45;;;;;;;9.50;3.50;;;;;;;20.78;56.98;99980.09;125395;1310;114995;-69
2023/08/04 21:06:08;;;;;;;4.30;3.50;;;;;;;20.69;57.95;99981.05;128084;1301;128845;-69
2023/08/04 21:10:11;;;;;;;6.30;4.20;;;;;;;20.65;58.25;99979.55;127744;1289;115007;-68
2023/08/04 21:14:17;;;;;;;8.60;3.40;;;;;;;20.62;58.43;99977.45;123929;1296;5526818;-69
2023/08/04 21:18:19;;;;;;;6.10;3.10;;;;;;;20.59;58.86;99980.15;127671;1285;114718;-68
2023/08/04 21:22:27;;;;;;;5.40;3.90;;;;;;;20.57;58.96;99980.92;127793;1294;114903;-69
2023/08/04 21:26:34;;;;;;;4.10;3.30;;;;;;;20.55;59.20;99984.36;126694;1292;114922;-69
2023/08/04 21:30:28;;;;;;;11.80;4.40;;;;;;;20.52;59.43;99986.27;125699;1304;129323;-69
2023/08/04 21:34:29;;;;;;;6.60;2.90;;;;;;;20.48;59.27;99983.52;125102;1324;115431;-69
2023/08/04 21:43:05;;;;;;;6.90;3.50;;;;;;;20.44;59.54;99981.10;125857;1299;640285;-70
2023/08/04 21:55:12;;;;;;;5.80;3.40;;;;;;;20.29;60.19;99991.55;121099;1313;5455118;-69
2023/08/04 22:07:43;;;;;;;8.90;3.30;;;;;;;20.14;60.56;99988.75;128004;1283;128811;-70
2023/08/04 22:11:51;;;;;;;7.50;3.50;;;;;;;20.10;60.85;99983.91;126405;1295;115384;-70
2023/08/04 22:15:52;;;;;;;6.20;3.50;;;;;;;20.03;61.19;99980.77;121362;1323;5479510;-70
2023/08/04 22:23:38;;;;;;;6.60;4.10;;;;;;;19.89;61.59;99990.91;126659;1294;636629;-69
2023/08/04 22:27:41;;;;;;;8.20;4.40;;;;;;;19.81;61.77;99996.74;129198;1267;128886;-70
2023/08/04 22:31:15;;;;;;;;;;;;;;;;;;;;;
2023/08/04 22:35:18;;;;;;;6.20;4.10;;;;;;;19.66;62.12;99987.59;127613;1301;114944;-71
2023/08/04 22:55:43;;;;;;;5.40;4.10;;;;;;;19.34;63.30;99970.30;126256;1301;637415;-68
2023/08/04 22:59:46;;;;;;;7.30;4.00;;;;;;;19.25;63.39;99967.94;128956;1277;127826;-70
2023/08/04 23:03:38;;;;;;;;;;;;;;;;;;;;;
2023/08/04 23:07:41;;;;;;;6.80;5.20;;;;;;;19.11;63.96;99954.17;123701;1284;5487397;-69
2023/08/04 23:15:47;;;;;;;8.10;4.20;;;;;;;18.97;64.45;99958.90;126521;1313;114860;-69
2023/08/04 23:23:49;;;;;;;6.60;4.60;;;;;;;18.85;65.03;99982.45;125941;1318;116593;-69
2023/08/04 23:36:26;;;;;;;8.30;4.90;;;;;;;18.81;65.57;99981.98;126375;1296;638814;-68
2023/08/04 23:40:28;;;;;;;11.10;5.10;;;;;;;18.81;65.87;99987.50;129338;1271;128029;-70
2023/08/04 23:44:31;;;;;;;7.80;4.10;;;;;;;18.80;66.08;99990.60;128031;1282;115288;-69
2023/08/04 23:48:34;;;;;;;5.70;4.20;;;;;;;18.80;66.24;99978.64;123232;1290;5489139;-69
2023/08/04 23:56:09;;;;;;;;;;;;;;;;;;;;;
2023/08/04 23:59:51;;;;;;;14.10;5.30;;;;;;;18.74;66.19;99972.34;125106;1324;114972;-68
